EST9901 EETN-EETN
Flight info
| Callsign | EST9901 |
|---|---|
| Flight time | 0h 12m |
| Altitude | 5000 |
| Route | TN551 DCT TN552 DCT TN750 DCT TN901 DCT VEMOX DCT TN551 DCT TN552 DCT TN750 DCT TN901 DCT VEMOX DCT TN551 DCT TN552 DCT TN750 DCT TN901 DCT VEMOX DCT TN551 DCT TN552 DCT TN750 DCT TN901 DCT VEMOX DCT TN551 DCT TN552 DCT TN750 DCT TN901 DCT VEMOX |
| Aircraft | A20N/M-SDE2E3FGHIRWXY/LB1 |
Departure
| Time | 2026-04-28 07:59 |
|---|---|
| Airport | Lennart Meri Tallinn Airport (EETN) |
Arrival
| Time | 2026-04-28 08:12 |
|---|---|
| Airport | Lennart Meri Tallinn Airport (EETN) |
| Time | Latitude | Longitude | Altitude | Speed | Heading |
|---|---|---|---|---|---|
| 2026-04-28 07:46 | 59.41603 | 24.81321 | 139 ft | 0 kts | 271° |
| 2026-04-28 07:53 | 59.41603 | 24.81317 | 139 ft | 1 kts | 271° |
| 2026-04-28 07:53 | 59.41604 | 24.81296 | 139 ft | 2 kts | 271° |
| 2026-04-28 07:54 | 59.41604 | 24.81246 | 139 ft | 6 kts | 271° |
| 2026-04-28 07:54 | 59.41582 | 24.81177 | 139 ft | 7 kts | 190° |
| 2026-04-28 07:54 | 59.41520 | 24.81195 | 139 ft | 11 kts | 152° |
| 2026-04-28 07:54 | 59.41504 | 24.81353 | 139 ft | 15 kts | 90° |
| 2026-04-28 07:55 | 59.41504 | 24.81626 | 140 ft | 25 kts | 90° |
| 2026-04-28 07:55 | 59.41503 | 24.82019 | 140 ft | 33 kts | 90° |
| 2026-04-28 07:55 | 59.41502 | 24.82443 | 140 ft | 31 kts | 89° |
| 2026-04-28 07:55 | 59.41501 | 24.82858 | 141 ft | 28 kts | 90° |
| 2026-04-28 07:56 | 59.41501 | 24.83200 | 141 ft | 22 kts | 90° |
| 2026-04-28 07:56 | 59.41499 | 24.83482 | 142 ft | 21 kts | 89° |
| 2026-04-28 07:56 | 59.41499 | 24.83758 | 142 ft | 20 kts | 89° |
| 2026-04-28 07:56 | 59.41498 | 24.84028 | 142 ft | 19 kts | 90° |
| 2026-04-28 07:57 | 59.41499 | 24.84290 | 142 ft | 19 kts | 89° |
| 2026-04-28 07:57 | 59.41486 | 24.84523 | 143 ft | 16 kts | 78° |
| 2026-04-28 07:57 | 59.41496 | 24.84723 | 143 ft | 14 kts | 91° |
| 2026-04-28 07:57 | 59.41493 | 24.84921 | 143 ft | 14 kts | 99° |
| 2026-04-28 07:58 | 59.41422 | 24.85000 | 143 ft | 12 kts | 180° |
| 2026-04-28 07:58 | 59.41337 | 24.84999 | 143 ft | 11 kts | 188° |
| 2026-04-28 07:58 | 59.41321 | 24.84927 | 143 ft | 4 kts | 282° |
| 2026-04-28 07:58 | 59.41324 | 24.84868 | 143 ft | 1 kts | 270° |
| 2026-04-28 07:59 | 59.41326 | 24.84281 | 141 ft | 89 kts | 270° |
| 2026-04-28 07:59 | 59.41327 | 24.82506 | 257 ft | 164 kts | 273° |
| 2026-04-28 07:59 | 59.41239 | 24.80236 | 1520 ft | 163 kts | 270° |
| 2026-04-28 07:59 | 59.41079 | 24.78007 | 2827 ft | 171 kts | 269° |
| 2026-04-28 08:00 | 59.40457 | 24.75855 | 3836 ft | 205 kts | 223° |
| 2026-04-28 08:00 | 59.39045 | 24.74628 | 4491 ft | 236 kts | 201° |
| 2026-04-28 08:00 | 59.37573 | 24.73311 | 4784 ft | 234 kts | 206° |
| 2026-04-28 08:00 | 59.36007 | 24.73042 | 4833 ft | 247 kts | 163° |
| 2026-04-28 08:01 | 59.34614 | 24.74835 | 4672 ft | 232 kts | 117° |
| 2026-04-28 08:01 | 59.34081 | 24.77665 | 4956 ft | 221 kts | 92° |
| 2026-04-28 08:01 | 59.33894 | 24.80635 | 4935 ft | 221 kts | 90° |
| 2026-04-28 08:01 | 59.33689 | 24.83611 | 4861 ft | 217 kts | 91° |
| 2026-04-28 08:02 | 59.33501 | 24.86522 | 5040 ft | 218 kts | 90° |
| 2026-04-28 08:02 | 59.33312 | 24.89508 | 4883 ft | 221 kts | 91° |
| 2026-04-28 08:02 | 59.33078 | 24.92437 | 4841 ft | 214 kts | 92° |
| 2026-04-28 08:02 | 59.32908 | 24.95442 | 4789 ft | 230 kts | 89° |
| 2026-04-28 08:03 | 59.32835 | 24.98469 | 4653 ft | 220 kts | 86° |
| 2026-04-28 08:03 | 59.32772 | 25.01491 | 4284 ft | 223 kts | 86° |
| 2026-04-28 08:03 | 59.32644 | 25.04454 | 3995 ft | 222 kts | 91° |
| 2026-04-28 08:03 | 59.32365 | 25.07518 | 3352 ft | 231 kts | 87° |
| 2026-04-28 08:04 | 59.32356 | 25.10656 | 2803 ft | 232 kts | 83° |
| 2026-04-28 08:04 | 59.32389 | 25.13846 | 2266 ft | 235 kts | 82° |
| 2026-04-28 08:04 | 59.32447 | 25.16924 | 2264 ft | 215 kts | 81° |
| 2026-04-28 08:04 | 59.32515 | 25.19713 | 2273 ft | 198 kts | 80° |
| 2026-04-28 08:05 | 59.32682 | 25.22300 | 2454 ft | 186 kts | 64° |
| 2026-04-28 08:05 | 59.33321 | 25.24440 | 2649 ft | 179 kts | 41° |
| 2026-04-28 08:05 | 59.34249 | 25.25731 | 2714 ft | 154 kts | 18° |
| 2026-04-28 08:05 | 59.35267 | 25.26080 | 2843 ft | 147 kts | 355° |
| 2026-04-28 08:06 | 59.36280 | 25.25648 | 2993 ft | 148 kts | 348° |
| 2026-04-28 08:06 | 59.37260 | 25.25122 | 3227 ft | 146 kts | 345° |
| 2026-04-28 08:06 | 59.38198 | 25.24438 | 3534 ft | 147 kts | 340° |
| 2026-04-28 08:06 | 59.39143 | 25.23476 | 3520 ft | 155 kts | 332° |
| 2026-04-28 08:07 | 59.39953 | 25.22090 | 3441 ft | 155 kts | 318° |
| 2026-04-28 08:07 | 59.40544 | 25.20302 | 3345 ft | 157 kts | 300° |
| 2026-04-28 08:07 | 59.40725 | 25.18036 | 3164 ft | 176 kts | 280° |
| 2026-04-28 08:07 | 59.40702 | 25.15586 | 2834 ft | 178 kts | 277° |
| 2026-04-28 08:08 | 59.40640 | 25.13195 | 2624 ft | 173 kts | 277° |
| 2026-04-28 08:08 | 59.40680 | 25.10834 | 2311 ft | 173 kts | 281° |
| 2026-04-28 08:08 | 59.40754 | 25.08505 | 2085 ft | 168 kts | 281° |
| 2026-04-28 08:08 | 59.40855 | 25.06359 | 2083 ft | 147 kts | 290° |
| 2026-04-28 08:09 | 59.41098 | 25.04465 | 2094 ft | 139 kts | 291° |
| 2026-04-28 08:09 | 59.41236 | 25.02535 | 1932 ft | 139 kts | 279° |
| 2026-04-28 08:09 | 59.41195 | 25.00682 | 1796 ft | 136 kts | 276° |
| 2026-04-28 08:09 | 59.41170 | 24.98861 | 1435 ft | 131 kts | 280° |
| 2026-04-28 08:10 | 59.41168 | 24.97089 | 1296 ft | 131 kts | 280° |
| 2026-04-28 08:10 | 59.41180 | 24.95342 | 1072 ft | 127 kts | 282° |
| 2026-04-28 08:10 | 59.41244 | 24.93662 | 902 ft | 123 kts | 282° |
| 2026-04-28 08:10 | 59.41253 | 24.92041 | 798 ft | 124 kts | 276° |
| 2026-04-28 08:11 | 59.41253 | 24.90327 | 576 ft | 123 kts | 279° |
| 2026-04-28 08:11 | 59.41312 | 24.88652 | 403 ft | 124 kts | 277° |
| 2026-04-28 08:11 | 59.41320 | 24.86979 | 267 ft | 124 kts | 276° |
| 2026-04-28 08:11 | 59.41317 | 24.85304 | 163 ft | 115 kts | 276° |
| 2026-04-28 08:12 | 59.41330 | 24.84051 | 141 ft | 69 kts | 269° |
| 2026-04-28 08:12 | 59.41329 | 24.83279 | 143 ft | 44 kts | 271° |
| 2026-04-28 08:12 | 59.41332 | 24.82917 | 140 ft | 36 kts | 274° |
| 2026-04-28 08:12 | 59.41398 | 24.82542 | 140 ft | 23 kts | 300° |
| 2026-04-28 08:13 | 59.41458 | 24.82340 | 140 ft | 12 kts | 299° |
| 2026-04-28 08:13 | 59.41499 | 24.82146 | 140 ft | 16 kts | 281° |
| 2026-04-28 08:13 | 59.41503 | 24.81982 | 140 ft | 20 kts | 268° |
| 2026-04-28 08:13 | 59.41503 | 24.81678 | 140 ft | 21 kts | 270° |
| 2026-04-28 08:14 | 59.41505 | 24.81417 | 139 ft | 19 kts | 270° |
| 2026-04-28 08:14 | 59.41532 | 24.81169 | 139 ft | 17 kts | 335° |
| 2026-04-28 08:14 | 59.41629 | 24.81177 | 139 ft | 13 kts | 2° |
| 2026-04-28 08:14 | 59.41699 | 24.81177 | 139 ft | 8 kts | 359° |
| 2026-04-28 08:15 | 59.41740 | 24.81193 | 139 ft | 5 kts | 34° |
| 2026-04-28 08:15 | 59.41750 | 24.81289 | 139 ft | 11 kts | 92° |
| 2026-04-28 08:15 | 59.41695 | 24.81406 | 139 ft | 16 kts | 186° |
| 2026-04-28 08:15 | 59.41608 | 24.81405 | 139 ft | 8 kts | 163° |
| 2026-04-28 08:16 | 59.41603 | 24.81468 | 139 ft | 6 kts | 78° |
| 2026-04-28 08:16 | 59.41603 | 24.81507 | 139 ft | 0 kts | 90° |